sensor_id;sensor_type;location;lat;lon;timestamp;P1;durP1;ratioP1;P2;durP2;ratioP2
6463;SDS011;3265;42.694;23.282;2024-02-04T00:00:45;13.50;;;5.07;;
6463;SDS011;3265;42.694;23.282;2024-02-04T00:03:13;9.17;;;5.23;;
6463;SDS011;3265;42.694;23.282;2024-02-04T00:05:43;8.87;;;5.40;;
6463;SDS011;3265;42.694;23.282;2024-02-04T00:08:47;8.03;;;4.90;;
6463;SDS011;3265;42.694;23.282;2024-02-04T00:11:37;9.17;;;5.57;;
6463;SDS011;3265;42.694;23.282;2024-02-04T00:14:13;10.50;;;5.37;;
6463;SDS011;3265;42.694;23.282;2024-02-04T00:16:50;8.23;;;5.33;;
6463;SDS011;3265;42.694;23.282;2024-02-04T00:19:23;9.53;;;5.27;;
6463;SDS011;3265;42.694;23.282;2024-02-04T00:21:56;11.37;;;5.83;;
6463;SDS011;3265;42.694;23.282;2024-02-04T00:24:31;11.10;;;5.40;;
6463;SDS011;3265;42.694;23.282;2024-02-04T00:27:06;10.63;;;5.70;;
6463;SDS011;3265;42.694;23.282;2024-02-04T00:29:44;9.97;;;5.70;;
6463;SDS011;3265;42.694;23.282;2024-02-04T00:32:22;9.30;;;5.40;;
6463;SDS011;3265;42.694;23.282;2024-02-04T00:34:56;9.97;;;5.40;;
6463;SDS011;3265;42.694;23.282;2024-02-04T00:37:27;8.53;;;5.17;;
6463;SDS011;3265;42.694;23.282;2024-02-04T00:49:48;8.37;;;5.90;;
6463;SDS011;3265;42.694;23.282;2024-02-04T00:52:16;10.93;;;5.60;;
6463;SDS011;3265;42.694;23.282;2024-02-04T00:54:50;10.10;;;5.30;;
6463;SDS011;3265;42.694;23.282;2024-02-04T00:57:37;8.73;;;6.07;;
6463;SDS011;3265;42.694;23.282;2024-02-04T01:00:18;9.17;;;5.47;;
6463;SDS011;3265;42.694;23.282;2024-02-04T01:02:49;10.87;;;5.47;;
6463;SDS011;3265;42.694;23.282;2024-02-04T01:05:23;9.60;;;5.17;;
6463;SDS011;3265;42.694;23.282;2024-02-04T01:07:53;8.07;;;5.40;;
6463;SDS011;3265;42.694;23.282;2024-02-04T01:10:30;9.33;;;5.27;;
6463;SDS011;3265;42.694;23.282;2024-02-04T01:13:00;9.23;;;4.80;;
6463;SDS011;3265;42.694;23.282;2024-02-04T01:15:32;6.73;;;4.87;;
6463;SDS011;3265;42.694;23.282;2024-02-04T01:18:14;9.17;;;5.20;;
6463;SDS011;3265;42.694;23.282;2024-02-04T01:20:46;7.57;;;4.80;;
6463;SDS011;3265;42.694;23.282;2024-02-04T01:23:17;9.73;;;4.43;;
6463;SDS011;3265;42.694;23.282;2024-02-04T01:25:45;6.37;;;4.50;;
6463;SDS011;3265;42.694;23.282;2024-02-04T01:28:15;5.93;;;4.40;;
6463;SDS011;3265;42.694;23.282;2024-02-04T01:30:44;8.37;;;4.90;;
6463;SDS011;3265;42.694;23.282;2024-02-04T01:33:12;5.87;;;4.27;;
6463;SDS011;3265;42.694;23.282;2024-02-04T01:35:40;8.03;;;4.77;;
6463;SDS011;3265;42.694;23.282;2024-02-04T01:38:09;7.97;;;5.07;;
6463;SDS011;3265;42.694;23.282;2024-02-04T01:40:36;5.40;;;4.17;;
6463;SDS011;3265;42.694;23.282;2024-02-04T01:43:05;8.53;;;4.60;;
6463;SDS011;3265;42.694;23.282;2024-02-04T01:45:39;6.93;;;4.60;;
6463;SDS011;3265;42.694;23.282;2024-02-04T01:48:13;6.77;;;4.30;;
6463;SDS011;3265;42.694;23.282;2024-02-04T01:50:41;7.30;;;4.63;;
6463;SDS011;3265;42.694;23.282;2024-02-04T01:53:13;9.23;;;5.10;;
6463;SDS011;3265;42.694;23.282;2024-02-04T01:55:54;7.93;;;5.30;;
6463;SDS011;3265;42.694;23.282;2024-02-04T01:58:25;11.03;;;5.53;;
6463;SDS011;3265;42.694;23.282;2024-02-04T02:01:01;6.93;;;4.57;;
6463;SDS011;3265;42.694;23.282;2024-02-04T02:03:40;6.67;;;4.37;;
6463;SDS011;3265;42.694;23.282;2024-02-04T02:06:17;8.63;;;4.83;;
6463;SDS011;3265;42.694;23.282;2024-02-04T02:08:47;8.53;;;4.57;;
6463;SDS011;3265;42.694;23.282;2024-02-04T02:11:21;6.23;;;4.13;;
6463;SDS011;3265;42.694;23.282;2024-02-04T02:14:00;6.47;;;4.63;;
6463;SDS011;3265;42.694;23.282;2024-02-04T02:16:32;9.10;;;5.10;;
6463;SDS011;3265;42.694;23.282;2024-02-04T02:19:02;7.03;;;4.50;;
6463;SDS011;3265;42.694;23.282;2024-02-04T02:21:43;10.20;;;4.53;;
6463;SDS011;3265;42.694;23.282;2024-02-04T02:24:26;7.50;;;4.57;;
6463;SDS011;3265;42.694;23.282;2024-02-04T02:27:02;7.67;;;4.70;;
6463;SDS011;3265;42.694;23.282;2024-02-04T02:29:31;8.70;;;4.93;;
6463;SDS011;3265;42.694;23.282;2024-02-04T02:31:59;10.77;;;5.30;;
6463;SDS011;3265;42.694;23.282;2024-02-04T02:34:32;7.77;;;4.63;;
6463;SDS011;3265;42.694;23.282;2024-02-04T02:37:09;7.60;;;4.60;;
6463;SDS011;3265;42.694;23.282;2024-02-04T02:40:08;6.57;;;4.70;;
6463;SDS011;3265;42.694;23.282;2024-02-04T02:42:43;6.83;;;4.40;;
6463;SDS011;3265;42.694;23.282;2024-02-04T02:45:34;9.73;;;4.97;;
6463;SDS011;3265;42.694;23.282;2024-02-04T02:48:05;8.87;;;4.57;;
6463;SDS011;3265;42.694;23.282;2024-02-04T02:50:34;8.27;;;4.40;;
6463;SDS011;3265;42.694;23.282;2024-02-04T02:53:02;8.80;;;4.73;;
6463;SDS011;3265;42.694;23.282;2024-02-04T02:55:31;8.53;;;4.67;;
6463;SDS011;3265;42.694;23.282;2024-02-04T02:58:02;8.53;;;5.30;;
6463;SDS011;3265;42.694;23.282;2024-02-04T03:00:33;10.23;;;6.23;;
6463;SDS011;3265;42.694;23.282;2024-02-04T03:03:03;9.17;;;5.27;;
6463;SDS011;3265;42.694;23.282;2024-02-04T03:05:45;9.30;;;5.33;;
6463;SDS011;3265;42.694;23.282;2024-02-04T03:08:13;10.37;;;5.37;;
6463;SDS011;3265;42.694;23.282;2024-02-04T03:10:43;10.13;;;5.37;;
6463;SDS011;3265;42.694;23.282;2024-02-04T03:13:15;7.53;;;4.83;;
6463;SDS011;3265;42.694;23.282;2024-02-04T03:15:44;9.23;;;5.20;;
6463;SDS011;3265;42.694;23.282;2024-02-04T03:18:11;7.73;;;5.00;;
6463;SDS011;3265;42.694;23.282;2024-02-04T03:20:53;7.70;;;5.13;;
6463;SDS011;3265;42.694;23.282;2024-02-04T03:23:34;9.97;;;5.83;;
6463;SDS011;3265;42.694;23.282;2024-02-04T03:26:03;11.23;;;5.40;;
6463;SDS011;3265;42.694;23.282;2024-02-04T03:28:34;7.77;;;4.53;;
6463;SDS011;3265;42.694;23.282;2024-02-04T03:31:02;7.30;;;4.80;;
6463;SDS011;3265;42.694;23.282;2024-02-04T03:33:37;8.50;;;4.53;;
6463;SDS011;3265;42.694;23.282;2024-02-04T03:36:06;6.70;;;4.83;;
6463;SDS011;3265;42.694;23.282;2024-02-04T03:38:34;10.40;;;4.70;;
6463;SDS011;3265;42.694;23.282;2024-02-04T03:41:06;8.13;;;4.90;;
6463;SDS011;3265;42.694;23.282;2024-02-04T03:43:51;5.87;;;4.13;;
6463;SDS011;3265;42.694;23.282;2024-02-04T03:46:20;7.67;;;4.90;;
6463;SDS011;3265;42.694;23.282;2024-02-04T03:48:48;6.90;;;4.90;;
6463;SDS011;3265;42.694;23.282;2024-02-04T03:51:21;6.37;;;4.53;;
6463;SDS011;3265;42.694;23.282;2024-02-04T03:54:02;9.60;;;5.53;;
6463;SDS011;3265;42.694;23.282;2024-02-04T03:56:34;8.47;;;4.43;;
6463;SDS011;3265;42.694;23.282;2024-02-04T03:59:06;9.00;;;4.80;;
6463;SDS011;3265;42.694;23.282;2024-02-04T04:01:36;7.13;;;4.70;;
6463;SDS011;3265;42.694;23.282;2024-02-04T04:04:14;6.50;;;4.63;;
6463;SDS011;3265;42.694;23.282;2024-02-04T04:06:42;8.60;;;4.73;;
6463;SDS011;3265;42.694;23.282;2024-02-04T04:09:10;7.23;;;4.30;;
6463;SDS011;3265;42.694;23.282;2024-02-04T04:11:49;5.70;;;4.00;;
6463;SDS011;3265;42.694;23.282;2024-02-04T04:14:21;7.67;;;4.40;;
6463;SDS011;3265;42.694;23.282;2024-02-04T04:16:56;7.50;;;4.80;;
6463;SDS011;3265;42.694;23.282;2024-02-04T04:19:27;8.00;;;5.20;;
6463;SDS011;3265;42.694;23.282;2024-02-04T04:22:05;9.03;;;5.33;;
6463;SDS011;3265;42.694;23.282;2024-02-04T04:24:33;10.17;;;4.80;;
6463;SDS011;3265;42.694;23.282;2024-02-04T04:27:02;11.17;;;5.87;;
6463;SDS011;3265;42.694;23.282;2024-02-04T04:29:29;9.37;;;6.20;;
6463;SDS011;3265;42.694;23.282;2024-02-04T04:32:00;10.60;;;5.83;;
6463;SDS011;3265;42.694;23.282;2024-02-04T04:34:35;7.67;;;4.83;;
6463;SDS011;3265;42.694;23.282;2024-02-04T04:37:10;9.57;;;5.07;;
6463;SDS011;3265;42.694;23.282;2024-02-04T04:39:49;7.93;;;4.70;;
6463;SDS011;3265;42.694;23.282;2024-02-04T04:42:21;8.40;;;5.53;;
6463;SDS011;3265;42.694;23.282;2024-02-04T04:44:52;8.47;;;5.50;;
6463;SDS011;3265;42.694;23.282;2024-02-04T04:47:20;8.20;;;5.77;;
6463;SDS011;3265;42.694;23.282;2024-02-04T04:49:50;10.57;;;5.03;;
6463;SDS011;3265;42.694;23.282;2024-02-04T04:52:18;9.00;;;5.50;;
6463;SDS011;3265;42.694;23.282;2024-02-04T04:54:46;6.33;;;4.60;;
6463;SDS011;3265;42.694;23.282;2024-02-04T04:57:17;7.73;;;4.70;;
6463;SDS011;3265;42.694;23.282;2024-02-04T04:59:49;10.20;;;5.43;;
6463;SDS011;3265;42.694;23.282;2024-02-04T05:02:19;10.17;;;6.13;;
6463;SDS011;3265;42.694;23.282;2024-02-04T05:04:49;8.17;;;5.37;;
6463;SDS011;3265;42.694;23.282;2024-02-04T05:07:31;7.63;;;5.50;;
6463;SDS011;3265;42.694;23.282;2024-02-04T05:10:02;8.50;;;4.80;;
6463;SDS011;3265;42.694;23.282;2024-02-04T05:12:30;6.07;;;4.50;;
6463;SDS011;3265;42.694;23.282;2024-02-04T05:15:03;7.80;;;5.10;;
6463;SDS011;3265;42.694;23.282;2024-02-04T05:17:32;7.97;;;5.13;;
6463;SDS011;3265;42.694;23.282;2024-02-04T05:20:00;8.63;;;5.50;;
6463;SDS011;3265;42.694;23.282;2024-02-04T05:22:29;6.97;;;4.60;;
6463;SDS011;3265;42.694;23.282;2024-02-04T05:24:58;7.03;;;4.90;;
6463;SDS011;3265;42.694;23.282;2024-02-04T05:27:27;9.67;;;5.20;;
6463;SDS011;3265;42.694;23.282;2024-02-04T05:30:03;6.13;;;4.63;;
6463;SDS011;3265;42.694;23.282;2024-02-04T05:32:31;8.33;;;5.50;;
6463;SDS011;3265;42.694;23.282;2024-02-04T05:34:59;6.90;;;5.07;;
6463;SDS011;3265;42.694;23.282;2024-02-04T05:37:29;10.90;;;5.33;;
6463;SDS011;3265;42.694;23.282;2024-02-04T05:39:58;9.10;;;5.80;;
6463;SDS011;3265;42.694;23.282;2024-02-04T05:42:45;10.93;;;5.67;;
6463;SDS011;3265;42.694;23.282;2024-02-04T05:45:25;11.00;;;6.17;;
6463;SDS011;3265;42.694;23.282;2024-02-04T05:48:02;11.63;;;5.80;;
6463;SDS011;3265;42.694;23.282;2024-02-04T05:50:44;9.57;;;6.20;;
6463;SDS011;3265;42.694;23.282;2024-02-04T05:53:14;9.07;;;5.90;;
6463;SDS011;3265;42.694;23.282;2024-02-04T05:55:47;10.53;;;6.67;;
6463;SDS011;3265;42.694;23.282;2024-02-04T05:58:15;11.40;;;7.10;;
6463;SDS011;3265;42.694;23.282;2024-02-04T06:00:43;8.67;;;6.23;;
6463;SDS011;3265;42.694;23.282;2024-02-04T06:03:17;12.20;;;6.30;;
6463;SDS011;3265;42.694;23.282;2024-02-04T06:05:45;9.67;;;6.17;;
6463;SDS011;3265;42.694;23.282;2024-02-04T06:08:16;8.50;;;6.33;;
6463;SDS011;3265;42.694;23.282;2024-02-04T06:10:44;8.20;;;5.80;;
6463;SDS011;3265;42.694;23.282;2024-02-04T06:13:30;8.50;;;4.73;;
6463;SDS011;3265;42.694;23.282;2024-02-04T06:16:09;8.07;;;5.47;;
6463;SDS011;3265;42.694;23.282;2024-02-04T06:18:58;10.37;;;6.67;;
6463;SDS011;3265;42.694;23.282;2024-02-04T06:21:38;9.67;;;6.17;;
6463;SDS011;3265;42.694;23.282;2024-02-04T06:24:08;6.83;;;4.87;;
6463;SDS011;3265;42.694;23.282;2024-02-04T06:26:41;14.07;;;5.93;;
6463;SDS011;3265;42.694;23.282;2024-02-04T06:29:28;14.43;;;7.93;;
6463;SDS011;3265;42.694;23.282;2024-02-04T06:32:01;15.17;;;6.90;;
6463;SDS011;3265;42.694;23.282;2024-02-04T06:34:49;11.77;;;5.70;;
6463;SDS011;3265;42.694;23.282;2024-02-04T06:37:23;12.07;;;7.10;;
6463;SDS011;3265;42.694;23.282;2024-02-04T06:46:24;10.33;;;5.90;;
6463;SDS011;3265;42.694;23.282;2024-02-04T06:48:59;8.87;;;6.60;;
6463;SDS011;3265;42.694;23.282;2024-02-04T06:51:29;9.77;;;5.90;;
6463;SDS011;3265;42.694;23.282;2024-02-04T06:53:59;9.00;;;6.23;;
6463;SDS011;3265;42.694;23.282;2024-02-04T06:56:39;11.13;;;6.43;;
6463;SDS011;3265;42.694;23.282;2024-02-04T06:59:12;13.10;;;5.77;;
6463;SDS011;3265;42.694;23.282;2024-02-04T07:01:42;9.87;;;5.50;;
6463;SDS011;3265;42.694;23.282;2024-02-04T07:04:13;8.07;;;5.77;;
6463;SDS011;3265;42.694;23.282;2024-02-04T07:06:47;10.27;;;5.73;;
6463;SDS011;3265;42.694;23.282;2024-02-04T07:09:14;8.67;;;4.10;;
6463;SDS011;3265;42.694;23.282;2024-02-04T07:11:42;9.40;;;5.80;;
6463;SDS011;3265;42.694;23.282;2024-02-04T07:14:13;9.90;;;6.40;;
6463;SDS011;3265;42.694;23.282;2024-02-04T07:16:44;9.07;;;6.27;;
6463;SDS011;3265;42.694;23.282;2024-02-04T07:19:19;8.77;;;6.03;;
6463;SDS011;3265;42.694;23.282;2024-02-04T07:21:58;8.40;;;5.30;;
6463;SDS011;3265;42.694;23.282;2024-02-04T07:24:41;8.13;;;5.10;;
6463;SDS011;3265;42.694;23.282;2024-02-04T07:27:14;12.37;;;6.47;;
6463;SDS011;3265;42.694;23.282;2024-02-04T07:29:55;11.87;;;6.13;;
6463;SDS011;3265;42.694;23.282;2024-02-04T07:32:39;7.83;;;5.03;;
6463;SDS011;3265;42.694;23.282;2024-02-04T07:35:18;10.37;;;5.90;;
6463;SDS011;3265;42.694;23.282;2024-02-04T07:37:48;11.67;;;7.00;;
6463;SDS011;3265;42.694;23.282;2024-02-04T07:40:15;8.43;;;5.53;;
6463;SDS011;3265;42.694;23.282;2024-02-04T07:42:56;10.83;;;7.10;;
6463;SDS011;3265;42.694;23.282;2024-02-04T07:45:29;14.63;;;6.50;;
6463;SDS011;3265;42.694;23.282;2024-02-04T07:48:05;7.53;;;5.23;;
6463;SDS011;3265;42.694;23.282;2024-02-04T07:50:36;7.10;;;5.00;;
6463;SDS011;3265;42.694;23.282;2024-02-04T07:53:21;9.10;;;5.00;;
6463;SDS011;3265;42.694;23.282;2024-02-04T07:56:06;10.90;;;6.20;;
6463;SDS011;3265;42.694;23.282;2024-02-04T07:58:51;10.10;;;5.10;;
6463;SDS011;3265;42.694;23.282;2024-02-04T08:01:22;7.80;;;5.10;;
6463;SDS011;3265;42.694;23.282;2024-02-04T08:03:57;10.43;;;5.27;;
6463;SDS011;3265;42.694;23.282;2024-02-04T08:06:34;8.63;;;5.30;;
6463;SDS011;3265;42.694;23.282;2024-02-04T08:09:13;8.73;;;5.47;;
6463;SDS011;3265;42.694;23.282;2024-02-04T08:11:40;11.30;;;6.53;;
6463;SDS011;3265;42.694;23.282;2024-02-04T08:14:11;10.43;;;5.00;;
6463;SDS011;3265;42.694;23.282;2024-02-04T08:16:39;9.93;;;5.53;;
6463;SDS011;3265;42.694;23.282;2024-02-04T08:19:20;8.80;;;4.93;;
6463;SDS011;3265;42.694;23.282;2024-02-04T08:21:49;8.00;;;4.43;;
6463;SDS011;3265;42.694;23.282;2024-02-04T08:24:16;7.93;;;5.47;;
6463;SDS011;3265;42.694;23.282;2024-02-04T08:26:50;6.33;;;4.50;;
6463;SDS011;3265;42.694;23.282;2024-02-04T08:29:18;5.57;;;3.77;;
6463;SDS011;3265;42.694;23.282;2024-02-04T08:31:55;9.33;;;3.80;;
6463;SDS011;3265;42.694;23.282;2024-02-04T08:34:22;9.03;;;4.03;;
6463;SDS011;3265;42.694;23.282;2024-02-04T08:36:52;5.40;;;3.80;;
6463;SDS011;3265;42.694;23.282;2024-02-04T08:39:19;7.03;;;3.77;;
6463;SDS011;3265;42.694;23.282;2024-02-04T08:41:46;6.37;;;4.20;;
6463;SDS011;3265;42.694;23.282;2024-02-04T08:44:12;8.47;;;4.93;;
6463;SDS011;3265;42.694;23.282;2024-02-04T08:46:39;6.87;;;4.50;;
6463;SDS011;3265;42.694;23.282;2024-02-04T08:49:06;9.50;;;5.30;;
6463;SDS011;3265;42.694;23.282;2024-02-04T08:51:33;8.43;;;5.27;;
6463;SDS011;3265;42.694;23.282;2024-02-04T08:54:01;10.23;;;6.53;;
6463;SDS011;3265;42.694;23.282;2024-02-04T08:56:33;8.07;;;5.10;;
6463;SDS011;3265;42.694;23.282;2024-02-04T08:59:11;9.80;;;5.33;;
6463;SDS011;3265;42.694;23.282;2024-02-04T09:01:38;9.77;;;5.00;;
6463;SDS011;3265;42.694;23.282;2024-02-04T09:04:05;10.23;;;5.47;;
6463;SDS011;3265;42.694;23.282;2024-02-04T09:06:32;10.33;;;5.80;;
6463;SDS011;3265;42.694;23.282;2024-02-04T09:08:58;7.97;;;5.10;;
6463;SDS011;3265;42.694;23.282;2024-02-04T09:11:27;8.47;;;5.20;;
6463;SDS011;3265;42.694;23.282;2024-02-04T09:13:54;9.67;;;5.80;;
6463;SDS011;3265;42.694;23.282;2024-02-04T09:16:21;8.87;;;4.97;;
6463;SDS011;3265;42.694;23.282;2024-02-04T09:18:48;13.27;;;7.03;;
6463;SDS011;3265;42.694;23.282;2024-02-04T09:21:15;11.63;;;6.40;;
6463;SDS011;3265;42.694;23.282;2024-02-04T09:23:42;9.13;;;5.87;;
6463;SDS011;3265;42.694;23.282;2024-02-04T09:26:09;13.63;;;5.87;;
6463;SDS011;3265;42.694;23.282;2024-02-04T09:28:38;8.33;;;4.87;;
6463;SDS011;3265;42.694;23.282;2024-02-04T09:31:07;7.90;;;4.37;;
6463;SDS011;3265;42.694;23.282;2024-02-04T09:33:51;9.83;;;4.57;;
6463;SDS011;3265;42.694;23.282;2024-02-04T09:36:23;6.87;;;4.00;;
6463;SDS011;3265;42.694;23.282;2024-02-04T09:38:58;5.93;;;3.90;;
6463;SDS011;3265;42.694;23.282;2024-02-04T09:41:37;7.47;;;4.47;;
6463;SDS011;3265;42.694;23.282;2024-02-04T09:44:41;5.57;;;3.90;;
6463;SDS011;3265;42.694;23.282;2024-02-04T09:47:19;6.17;;;3.90;;
6463;SDS011;3265;42.694;23.282;2024-02-04T09:56:56;5.20;;;3.60;;
6463;SDS011;3265;42.694;23.282;2024-02-04T09:59:44;5.80;;;3.80;;
6463;SDS011;3265;42.694;23.282;2024-02-04T10:02:22;6.70;;;4.10;;
6463;SDS011;3265;42.694;23.282;2024-02-04T10:04:51;6.83;;;4.13;;
6463;SDS011;3265;42.694;23.282;2024-02-04T10:07:55;7.60;;;2.80;;
6463;SDS011;3265;42.694;23.282;2024-02-04T10:10:23;5.83;;;2.97;;
6463;SDS011;3265;42.694;23.282;2024-02-04T10:19:30;4.37;;;2.67;;
6463;SDS011;3265;42.694;23.282;2024-02-04T10:22:05;6.13;;;3.00;;
6463;SDS011;3265;42.694;23.282;2024-02-04T10:24:32;4.60;;;3.37;;
6463;SDS011;3265;42.694;23.282;2024-02-04T10:26:59;5.00;;;3.30;;
6463;SDS011;3265;42.694;23.282;2024-02-04T10:29:37;3.77;;;3.10;;
6463;SDS011;3265;42.694;23.282;2024-02-04T10:32:21;5.83;;;3.70;;
6463;SDS011;3265;42.694;23.282;2024-02-04T10:34:53;5.43;;;3.70;;
6463;SDS011;3265;42.694;23.282;2024-02-04T10:37:20;6.97;;;3.47;;
6463;SDS011;3265;42.694;23.282;2024-02-04T10:40:13;4.57;;;3.00;;
6463;SDS011;3265;42.694;23.282;2024-02-04T10:48:11;4.00;;;3.00;;
6463;SDS011;3265;42.694;23.282;2024-02-04T10:50:55;9.73;;;5.13;;
6463;SDS011;3265;42.694;23.282;2024-02-04T10:53:32;10.57;;;5.60;;
6463;SDS011;3265;42.694;23.282;2024-02-04T10:56:09;7.47;;;4.80;;
6463;SDS011;3265;42.694;23.282;2024-02-04T10:58:50;7.23;;;3.97;;
6463;SDS011;3265;42.694;23.282;2024-02-04T11:01:27;7.07;;;3.73;;
6463;SDS011;3265;42.694;23.282;2024-02-04T11:04:25;4.57;;;3.27;;
6463;SDS011;3265;42.694;23.282;2024-02-04T11:10:01;5.80;;;3.90;;
6463;SDS011;3265;42.694;23.282;2024-02-04T11:12:45;4.20;;;2.93;;
6463;SDS011;3265;42.694;23.282;2024-02-04T11:15:24;3.73;;;2.60;;
6463;SDS011;3265;42.694;23.282;2024-02-04T11:18:27;5.00;;;3.60;;
6463;SDS011;3265;42.694;23.282;2024-02-04T11:21:30;8.77;;;5.20;;
6463;SDS011;3265;42.694;23.282;2024-02-04T11:24:34;9.53;;;5.07;;
6463;SDS011;3265;42.694;23.282;2024-02-04T11:27:15;6.60;;;3.50;;
6463;SDS011;3265;42.694;23.282;2024-02-04T11:29:48;4.60;;;3.27;;
6463;SDS011;3265;42.694;23.282;2024-02-04T11:32:21;4.80;;;3.30;;
6463;SDS011;3265;42.694;23.282;2024-02-04T11:34:52;7.83;;;3.37;;
6463;SDS011;3265;42.694;23.282;2024-02-04T11:37:25;4.67;;;3.10;;
6463;SDS011;3265;42.694;23.282;2024-02-04T11:39:54;5.87;;;4.27;;
6463;SDS011;3265;42.694;23.282;2024-02-04T11:42:40;6.50;;;3.60;;
6463;SDS011;3265;42.694;23.282;2024-02-04T11:45:10;4.87;;;3.57;;
6463;SDS011;3265;42.694;23.282;2024-02-04T11:47:48;5.20;;;3.40;;
6463;SDS011;3265;42.694;23.282;2024-02-04T11:50:27;7.67;;;3.90;;
6463;SDS011;3265;42.694;23.282;2024-02-04T11:53:02;6.90;;;3.87;;
6463;SDS011;3265;42.694;23.282;2024-02-04T11:55:35;4.60;;;3.33;;
6463;SDS011;3265;42.694;23.282;2024-02-04T11:58:14;4.20;;;2.50;;
6463;SDS011;3265;42.694;23.282;2024-02-04T12:00:51;3.33;;;2.83;;
6463;SDS011;3265;42.694;23.282;2024-02-04T12:03:34;5.70;;;2.40;;
6463;SDS011;3265;42.694;23.282;2024-02-04T12:06:14;4.83;;;3.87;;
6463;SDS011;3265;42.694;23.282;2024-02-04T12:08:42;5.80;;;4.17;;
6463;SDS011;3265;42.694;23.282;2024-02-04T12:11:13;4.30;;;3.63;;
6463;SDS011;3265;42.694;23.282;2024-02-04T12:14:03;4.47;;;3.37;;
6463;SDS011;3265;42.694;23.282;2024-02-04T12:16:32;5.00;;;3.30;;
6463;SDS011;3265;42.694;23.282;2024-02-04T12:19:00;5.77;;;4.17;;
6463;SDS011;3265;42.694;23.282;2024-02-04T12:21:29;11.57;;;6.00;;
6463;SDS011;3265;42.694;23.282;2024-02-04T12:23:56;8.70;;;3.90;;
6463;SDS011;3265;42.694;23.282;2024-02-04T12:26:33;3.80;;;2.80;;
6463;SDS011;3265;42.694;23.282;2024-02-04T12:29:03;3.93;;;2.77;;
6463;SDS011;3265;42.694;23.282;2024-02-04T12:31:32;6.10;;;3.47;;
6463;SDS011;3265;42.694;23.282;2024-02-04T12:34:01;5.20;;;3.27;;
6463;SDS011;3265;42.694;23.282;2024-02-04T12:36:31;5.70;;;3.47;;
6463;SDS011;3265;42.694;23.282;2024-02-04T12:38:59;4.30;;;3.60;;
6463;SDS011;3265;42.694;23.282;2024-02-04T12:47:51;7.50;;;4.80;;
6463;SDS011;3265;42.694;23.282;2024-02-04T12:50:20;4.77;;;3.47;;
6463;SDS011;3265;42.694;23.282;2024-02-04T12:53:02;6.30;;;3.40;;
6463;SDS011;3265;42.694;23.282;2024-02-04T12:55:41;3.80;;;2.90;;
6463;SDS011;3265;42.694;23.282;2024-02-04T12:58:08;3.93;;;3.20;;
6463;SDS011;3265;42.694;23.282;2024-02-04T13:00:40;5.77;;;4.00;;
6463;SDS011;3265;42.694;23.282;2024-02-04T13:03:14;4.50;;;2.80;;
6463;SDS011;3265;42.694;23.282;2024-02-04T13:05:57;5.83;;;3.40;;
6463;SDS011;3265;42.694;23.282;2024-02-04T13:08:33;8.67;;;3.83;;
6463;SDS011;3265;42.694;23.282;2024-02-04T13:11:21;4.93;;;3.30;;
6463;SDS011;3265;42.694;23.282;2024-02-04T13:13:51;4.00;;;3.10;;
6463;SDS011;3265;42.694;23.282;2024-02-04T13:16:19;7.57;;;4.70;;
6463;SDS011;3265;42.694;23.282;2024-02-04T13:18:53;8.37;;;4.30;;
6463;SDS011;3265;42.694;23.282;2024-02-04T13:21:20;6.23;;;4.07;;
6463;SDS011;3265;42.694;23.282;2024-02-04T13:23:47;4.40;;;3.23;;
6463;SDS011;3265;42.694;23.282;2024-02-04T13:26:15;5.20;;;3.57;;
6463;SDS011;3265;42.694;23.282;2024-02-04T13:28:42;9.03;;;4.10;;
6463;SDS011;3265;42.694;23.282;2024-02-04T13:31:10;10.70;;;4.60;;
6463;SDS011;3265;42.694;23.282;2024-02-04T13:33:51;7.73;;;4.70;;
6463;SDS011;3265;42.694;23.282;2024-02-04T13:36:24;3.93;;;2.90;;
6463;SDS011;3265;42.694;23.282;2024-02-04T13:38:51;7.77;;;4.37;;
6463;SDS011;3265;42.694;23.282;2024-02-04T13:41:32;11.27;;;5.07;;
6463;SDS011;3265;42.694;23.282;2024-02-04T13:44:06;6.30;;;3.77;;
6463;SDS011;3265;42.694;23.282;2024-02-04T13:46:43;10.13;;;4.70;;
6463;SDS011;3265;42.694;23.282;2024-02-04T13:49:22;7.53;;;5.03;;
6463;SDS011;3265;42.694;23.282;2024-02-04T13:52:06;6.93;;;4.43;;
6463;SDS011;3265;42.694;23.282;2024-02-04T13:54:36;5.47;;;4.03;;
6463;SDS011;3265;42.694;23.282;2024-02-04T13:57:04;5.00;;;3.60;;
6463;SDS011;3265;42.694;23.282;2024-02-04T13:59:32;5.30;;;3.50;;
6463;SDS011;3265;42.694;23.282;2024-02-04T14:01:58;11.10;;;6.50;;
6463;SDS011;3265;42.694;23.282;2024-02-04T14:04:28;10.87;;;6.50;;
6463;SDS011;3265;42.694;23.282;2024-02-04T14:06:56;9.83;;;6.47;;
6463;SDS011;3265;42.694;23.282;2024-02-04T14:09:23;9.83;;;4.87;;
6463;SDS011;3265;42.694;23.282;2024-02-04T14:11:51;8.07;;;5.33;;
6463;SDS011;3265;42.694;23.282;2024-02-04T14:14:19;4.37;;;3.17;;
6463;SDS011;3265;42.694;23.282;2024-02-04T14:16:47;7.57;;;5.10;;
6463;SDS011;3265;42.694;23.282;2024-02-04T14:19:14;15.30;;;7.83;;
6463;SDS011;3265;42.694;23.282;2024-02-04T14:21:43;18.93;;;10.73;;
6463;SDS011;3265;42.694;23.282;2024-02-04T14:24:10;14.30;;;8.40;;
6463;SDS011;3265;42.694;23.282;2024-02-04T14:26:38;8.10;;;5.90;;
6463;SDS011;3265;42.694;23.282;2024-02-04T14:29:06;6.83;;;5.10;;
6463;SDS011;3265;42.694;23.282;2024-02-04T14:31:33;8.07;;;4.57;;
6463;SDS011;3265;42.694;23.282;2024-02-04T14:34:00;4.97;;;3.83;;
6463;SDS011;3265;42.694;23.282;2024-02-04T14:36:27;4.00;;;2.53;;
6463;SDS011;3265;42.694;23.282;2024-02-04T14:39:10;6.27;;;4.13;;
6463;SDS011;3265;42.694;23.282;2024-02-04T14:41:49;4.80;;;3.50;;
6463;SDS011;3265;42.694;23.282;2024-02-04T14:44:17;6.03;;;4.07;;
6463;SDS011;3265;42.694;23.282;2024-02-04T15:01:17;4.53;;;3.80;;
6463;SDS011;3265;42.694;23.282;2024-02-04T15:06:21;4.93;;;3.60;;
6463;SDS011;3265;42.694;23.282;2024-02-04T15:09:17;6.53;;;4.27;;
6463;SDS011;3265;42.694;23.282;2024-02-04T15:12:02;6.43;;;4.10;;
6463;SDS011;3265;42.694;23.282;2024-02-04T15:14:41;4.83;;;3.37;;
6463;SDS011;3265;42.694;23.282;2024-02-04T15:17:18;7.17;;;3.70;;
6463;SDS011;3265;42.694;23.282;2024-02-04T15:20:08;5.57;;;4.00;;
6463;SDS011;3265;42.694;23.282;2024-02-04T15:22:56;7.83;;;4.87;;
6463;SDS011;3265;42.694;23.282;2024-02-04T15:25:26;6.93;;;4.40;;
6463;SDS011;3265;42.694;23.282;2024-02-04T15:27:53;9.40;;;4.90;;
6463;SDS011;3265;42.694;23.282;2024-02-04T15:30:32;10.77;;;6.10;;
6463;SDS011;3265;42.694;23.282;2024-02-04T15:33:02;12.40;;;7.17;;
6463;SDS011;3265;42.694;23.282;2024-02-04T15:38:13;15.27;;;8.50;;
6463;SDS011;3265;42.694;23.282;2024-02-04T15:40:55;15.73;;;9.40;;
6463;SDS011;3265;42.694;23.282;2024-02-04T15:43:39;16.50;;;9.67;;
6463;SDS011;3265;42.694;23.282;2024-02-04T15:46:12;17.93;;;10.60;;
6463;SDS011;3265;42.694;23.282;2024-02-04T15:48:40;16.70;;;10.23;;
6463;SDS011;3265;42.694;23.282;2024-02-04T15:51:16;28.97;;;15.30;;
6463;SDS011;3265;42.694;23.282;2024-02-04T15:53:44;34.67;;;18.00;;
6463;SDS011;3265;42.694;23.282;2024-02-04T15:56:12;46.57;;;23.13;;
6463;SDS011;3265;42.694;23.282;2024-02-04T15:58:44;54.73;;;25.77;;
6463;SDS011;3265;42.694;23.282;2024-02-04T16:01:27;32.47;;;17.47;;
6463;SDS011;3265;42.694;23.282;2024-02-04T16:04:06;24.43;;;12.53;;
6463;SDS011;3265;42.694;23.282;2024-02-04T16:06:48;34.83;;;16.23;;
6463;SDS011;3265;42.694;23.282;2024-02-04T16:09:33;38.50;;;16.40;;
6463;SDS011;3265;42.694;23.282;2024-02-04T16:12:08;28.37;;;12.37;;
6463;SDS011;3265;42.694;23.282;2024-02-04T16:14:49;25.67;;;12.37;;
6463;SDS011;3265;42.694;23.282;2024-02-04T16:17:35;19.77;;;11.67;;
6463;SDS011;3265;42.694;23.282;2024-02-04T16:20:05;34.30;;;18.37;;
6463;SDS011;3265;42.694;23.282;2024-02-04T16:22:54;40.43;;;22.60;;
6463;SDS011;3265;42.694;23.282;2024-02-04T16:25:21;38.87;;;21.63;;
6463;SDS011;3265;42.694;23.282;2024-02-04T16:27:54;40.43;;;22.07;;
6463;SDS011;3265;42.694;23.282;2024-02-04T16:30:24;55.17;;;26.00;;
6463;SDS011;3265;42.694;23.282;2024-02-04T16:33:00;47.77;;;26.43;;
6463;SDS011;3265;42.694;23.282;2024-02-04T16:35:31;40.30;;;21.70;;
6463;SDS011;3265;42.694;23.282;2024-02-04T16:38:08;27.43;;;15.27;;
6463;SDS011;3265;42.694;23.282;2024-02-04T16:40:49;19.47;;;10.13;;
6463;SDS011;3265;42.694;23.282;2024-02-04T16:43:17;15.30;;;9.43;;